sensor_id;sensor_type;location;lat;lon;timestamp;P1;durP1;ratioP1;P2;durP2;ratioP2
72601;SDS011;60644;55.858;37.390;2022-07-21T00:01:48;1.83;;;0.20;;
72601;SDS011;60644;55.858;37.390;2022-07-21T00:04:16;2.17;;;0.30;;
72601;SDS011;60644;55.858;37.390;2022-07-21T00:06:43;2.50;;;0.32;;
72601;SDS011;60644;55.858;37.390;2022-07-21T00:09:10;2.75;;;0.50;;
72601;SDS011;60644;55.858;37.390;2022-07-21T00:11:37;2.23;;;0.20;;
72601;SDS011;60644;55.858;37.390;2022-07-21T00:14:04;1.63;;;0.30;;
72601;SDS011;60644;55.858;37.390;2022-07-21T00:16:32;2.92;;;0.38;;
72601;SDS011;60644;55.858;37.390;2022-07-21T00:18:58;2.03;;;0.30;;
72601;SDS011;60644;55.858;37.390;2022-07-21T00:21:28;3.72;;;0.35;;
72601;SDS011;60644;55.858;37.390;2022-07-21T00:23:54;2.37;;;0.50;;
72601;SDS011;60644;55.858;37.390;2022-07-21T00:26:20;0.90;;;0.20;;
72601;SDS011;60644;55.858;37.390;2022-07-21T00:28:46;1.92;;;0.30;;
72601;SDS011;60644;55.858;37.390;2022-07-21T00:31:12;3.83;;;0.55;;
72601;SDS011;60644;55.858;37.390;2022-07-21T00:33:38;3.20;;;0.30;;
72601;SDS011;60644;55.858;37.390;2022-07-21T00:36:04;1.30;;;0.28;;
72601;SDS011;60644;55.858;37.390;2022-07-21T00:38:31;0.93;;;0.20;;
72601;SDS011;60644;55.858;37.390;2022-07-21T00:40:57;2.25;;;0.28;;
72601;SDS011;60644;55.858;37.390;2022-07-21T00:43:22;3.47;;;0.30;;
72601;SDS011;60644;55.858;37.390;2022-07-21T00:45:51;1.63;;;0.20;;
72601;SDS011;60644;55.858;37.390;2022-07-21T00:48:18;2.85;;;0.30;;
72601;SDS011;60644;55.858;37.390;2022-07-21T00:50:44;1.35;;;0.30;;
72601;SDS011;60644;55.858;37.390;2022-07-21T00:53:10;2.80;;;0.50;;
72601;SDS011;60644;55.858;37.390;2022-07-21T00:55:36;2.07;;;0.33;;
72601;SDS011;60644;55.858;37.390;2022-07-21T00:58:02;2.47;;;0.50;;
72601;SDS011;60644;55.858;37.390;2022-07-21T01:00:29;1.05;;;0.20;;
72601;SDS011;60644;55.858;37.390;2022-07-21T01:02:56;2.20;;;0.38;;
72601;SDS011;60644;55.858;37.390;2022-07-21T01:05:23;4.13;;;0.30;;
72601;SDS011;60644;55.858;37.390;2022-07-21T01:07:50;2.25;;;0.30;;
72601;SDS011;60644;55.858;37.390;2022-07-21T01:10:19;1.52;;;0.20;;
72601;SDS011;60644;55.858;37.390;2022-07-21T01:12:47;2.30;;;0.30;;
72601;SDS011;60644;55.858;37.390;2022-07-21T01:15:14;2.30;;;0.20;;
72601;SDS011;60644;55.858;37.390;2022-07-21T01:17:42;2.77;;;0.30;;
72601;SDS011;60644;55.858;37.390;2022-07-21T01:20:10;1.77;;;0.30;;
72601;SDS011;60644;55.858;37.390;2022-07-21T01:22:39;1.60;;;0.30;;
72601;SDS011;60644;55.858;37.390;2022-07-21T01:25:07;1.95;;;0.32;;
72601;SDS011;60644;55.858;37.390;2022-07-21T01:27:33;2.85;;;0.30;;
72601;SDS011;60644;55.858;37.390;2022-07-21T01:29:59;3.37;;;0.30;;
72601;SDS011;60644;55.858;37.390;2022-07-21T01:32:26;2.17;;;0.25;;
72601;SDS011;60644;55.858;37.390;2022-07-21T01:34:52;1.55;;;0.30;;
72601;SDS011;60644;55.858;37.390;2022-07-21T01:37:22;2.75;;;0.40;;
72601;SDS011;60644;55.858;37.390;2022-07-21T01:39:49;2.97;;;0.40;;
72601;SDS011;60644;55.858;37.390;2022-07-21T01:42:35;3.80;;;0.50;;
72601;SDS011;60644;55.858;37.390;2022-07-21T01:45:02;4.57;;;0.40;;
72601;SDS011;60644;55.858;37.390;2022-07-21T01:47:29;2.13;;;0.40;;
72601;SDS011;60644;55.858;37.390;2022-07-21T01:49:55;2.70;;;0.50;;
72601;SDS011;60644;55.858;37.390;2022-07-21T01:52:22;3.50;;;0.75;;
72601;SDS011;60644;55.858;37.390;2022-07-21T01:54:48;4.13;;;0.50;;
72601;SDS011;60644;55.858;37.390;2022-07-21T01:57:14;3.40;;;0.50;;
72601;SDS011;60644;55.858;37.390;2022-07-21T01:59:40;3.38;;;0.60;;
72601;SDS011;60644;55.858;37.390;2022-07-21T02:02:06;3.05;;;0.57;;
72601;SDS011;60644;55.858;37.390;2022-07-21T02:04:33;1.83;;;0.47;;
72601;SDS011;60644;55.858;37.390;2022-07-21T02:07:00;2.03;;;0.37;;
72601;SDS011;60644;55.858;37.390;2022-07-21T02:09:26;3.00;;;0.38;;
72601;SDS011;60644;55.858;37.390;2022-07-21T02:11:53;2.85;;;0.45;;
72601;SDS011;60644;55.858;37.390;2022-07-21T02:14:19;2.08;;;0.40;;
72601;SDS011;60644;55.858;37.390;2022-07-21T02:16:45;2.42;;;0.43;;
72601;SDS011;60644;55.858;37.390;2022-07-21T02:19:11;2.97;;;0.50;;
72601;SDS011;60644;55.858;37.390;2022-07-21T02:21:37;2.85;;;0.60;;
72601;SDS011;60644;55.858;37.390;2022-07-21T02:24:03;2.47;;;0.35;;
72601;SDS011;60644;55.858;37.390;2022-07-21T02:26:29;2.50;;;0.37;;
72601;SDS011;60644;55.858;37.390;2022-07-21T02:28:55;2.05;;;0.38;;
72601;SDS011;60644;55.858;37.390;2022-07-21T02:31:21;3.55;;;0.50;;
72601;SDS011;60644;55.858;37.390;2022-07-21T02:33:47;1.83;;;0.35;;
72601;SDS011;60644;55.858;37.390;2022-07-21T02:36:13;3.33;;;0.53;;
72601;SDS011;60644;55.858;37.390;2022-07-21T02:38:39;4.10;;;1.27;;
72601;SDS011;60644;55.858;37.390;2022-07-21T02:41:05;3.10;;;0.75;;
72601;SDS011;60644;55.858;37.390;2022-07-21T02:43:31;2.95;;;0.85;;
72601;SDS011;60644;55.858;37.390;2022-07-21T02:45:57;4.27;;;1.10;;
72601;SDS011;60644;55.858;37.390;2022-07-21T02:48:23;2.90;;;0.75;;
72601;SDS011;60644;55.858;37.390;2022-07-21T02:50:48;4.20;;;0.80;;
72601;SDS011;60644;55.858;37.390;2022-07-21T02:53:16;3.30;;;0.97;;
72601;SDS011;60644;55.858;37.390;2022-07-21T02:55:48;3.13;;;0.90;;
72601;SDS011;60644;55.858;37.390;2022-07-21T03:03:21;3.47;;;0.70;;
72601;SDS011;60644;55.858;37.390;2022-07-21T03:05:49;4.57;;;0.77;;
72601;SDS011;60644;55.858;37.390;2022-07-21T03:08:15;2.45;;;0.63;;
72601;SDS011;60644;55.858;37.390;2022-07-21T03:10:42;2.60;;;0.60;;
72601;SDS011;60644;55.858;37.390;2022-07-21T03:13:08;3.20;;;0.77;;
72601;SDS011;60644;55.858;37.390;2022-07-21T03:15:34;2.58;;;0.80;;
72601;SDS011;60644;55.858;37.390;2022-07-21T03:18:00;2.30;;;0.70;;
72601;SDS011;60644;55.858;37.390;2022-07-21T03:20:28;4.07;;;1.50;;
72601;SDS011;60644;55.858;37.390;2022-07-21T03:22:56;5.65;;;1.80;;
72601;SDS011;60644;55.858;37.390;2022-07-21T03:25:22;4.97;;;1.60;;
72601;SDS011;60644;55.858;37.390;2022-07-21T03:27:48;5.25;;;2.00;;
72601;SDS011;60644;55.858;37.390;2022-07-21T03:30:15;4.33;;;1.60;;
72601;SDS011;60644;55.858;37.390;2022-07-21T03:32:41;5.40;;;1.95;;
72601;SDS011;60644;55.858;37.390;2022-07-21T03:35:08;5.50;;;2.08;;
72601;SDS011;60644;55.858;37.390;2022-07-21T03:37:55;4.10;;;1.40;;
72601;SDS011;60644;55.858;37.390;2022-07-21T03:40:23;4.35;;;1.23;;
72601;SDS011;60644;55.858;37.390;2022-07-21T03:42:52;3.87;;;1.07;;
72601;SDS011;60644;55.858;37.390;2022-07-21T03:45:20;3.88;;;1.10;;
72601;SDS011;60644;55.858;37.390;2022-07-21T03:47:46;4.32;;;1.20;;
72601;SDS011;60644;55.858;37.390;2022-07-21T03:50:12;3.58;;;1.00;;
72601;SDS011;60644;55.858;37.390;2022-07-21T03:52:39;2.88;;;0.88;;
72601;SDS011;60644;55.858;37.390;2022-07-21T03:55:05;4.40;;;1.13;;
72601;SDS011;60644;55.858;37.390;2022-07-21T03:57:39;2.92;;;0.80;;
72601;SDS011;60644;55.858;37.390;2022-07-21T04:00:15;3.90;;;1.13;;
72601;SDS011;60644;55.858;37.390;2022-07-21T04:02:43;2.47;;;0.70;;
72601;SDS011;60644;55.858;37.390;2022-07-21T04:05:13;3.60;;;1.02;;
72601;SDS011;60644;55.858;37.390;2022-07-21T04:07:40;3.93;;;1.00;;
72601;SDS011;60644;55.858;37.390;2022-07-21T04:10:08;3.53;;;1.20;;
72601;SDS011;60644;55.858;37.390;2022-07-21T04:12:36;3.83;;;1.00;;
72601;SDS011;60644;55.858;37.390;2022-07-21T04:15:03;4.53;;;0.85;;
72601;SDS011;60644;55.858;37.390;2022-07-21T04:17:30;4.30;;;1.13;;
72601;SDS011;60644;55.858;37.390;2022-07-21T04:19:56;4.27;;;1.13;;
72601;SDS011;60644;55.858;37.390;2022-07-21T04:22:22;4.32;;;1.20;;
72601;SDS011;60644;55.858;37.390;2022-07-21T04:24:48;4.75;;;1.15;;
72601;SDS011;60644;55.858;37.390;2022-07-21T04:27:14;3.70;;;0.83;;
72601;SDS011;60644;55.858;37.390;2022-07-21T04:29:40;3.37;;;0.80;;
72601;SDS011;60644;55.858;37.390;2022-07-21T04:32:06;3.80;;;1.00;;
72601;SDS011;60644;55.858;37.390;2022-07-21T04:34:32;3.58;;;0.90;;
72601;SDS011;60644;55.858;37.390;2022-07-21T04:36:58;3.42;;;1.08;;
72601;SDS011;60644;55.858;37.390;2022-07-21T04:39:24;3.50;;;0.83;;
72601;SDS011;60644;55.858;37.390;2022-07-21T04:41:50;3.30;;;0.85;;
72601;SDS011;60644;55.858;37.390;2022-07-21T04:44:16;2.87;;;0.93;;
72601;SDS011;60644;55.858;37.390;2022-07-21T04:46:42;2.80;;;0.70;;
72601;SDS011;60644;55.858;37.390;2022-07-21T04:49:07;3.60;;;0.80;;
72601;SDS011;60644;55.858;37.390;2022-07-21T04:51:33;3.90;;;0.93;;
72601;SDS011;60644;55.858;37.390;2022-07-21T04:53:59;2.40;;;0.73;;
72601;SDS011;60644;55.858;37.390;2022-07-21T04:56:25;3.35;;;1.30;;
72601;SDS011;60644;55.858;37.390;2022-07-21T04:58:51;3.22;;;1.00;;
72601;SDS011;60644;55.858;37.390;2022-07-21T05:01:17;3.30;;;1.00;;
72601;SDS011;60644;55.858;37.390;2022-07-21T05:03:44;3.47;;;1.10;;
72601;SDS011;60644;55.858;37.390;2022-07-21T05:06:10;2.60;;;0.80;;
72601;SDS011;60644;55.858;37.390;2022-07-21T05:08:37;2.85;;;1.00;;
72601;SDS011;60644;55.858;37.390;2022-07-21T05:11:03;3.33;;;1.02;;
72601;SDS011;60644;55.858;37.390;2022-07-21T05:13:29;4.63;;;1.13;;
72601;SDS011;60644;55.858;37.390;2022-07-21T05:15:55;3.95;;;1.10;;
72601;SDS011;60644;55.858;37.390;2022-07-21T05:18:21;3.50;;;1.00;;
72601;SDS011;60644;55.858;37.390;2022-07-21T05:20:47;3.63;;;1.20;;
72601;SDS011;60644;55.858;37.390;2022-07-21T05:23:13;4.37;;;0.97;;
72601;SDS011;60644;55.858;37.390;2022-07-21T05:25:39;3.63;;;0.95;;
72601;SDS011;60644;55.858;37.390;2022-07-21T05:28:05;2.88;;;0.90;;
72601;SDS011;60644;55.858;37.390;2022-07-21T05:30:31;3.90;;;0.73;;
72601;SDS011;60644;55.858;37.390;2022-07-21T05:32:57;3.40;;;0.77;;
72601;SDS011;60644;55.858;37.390;2022-07-21T05:35:23;3.03;;;0.93;;
72601;SDS011;60644;55.858;37.390;2022-07-21T05:37:49;4.35;;;0.98;;
72601;SDS011;60644;55.858;37.390;2022-07-21T05:40:15;2.87;;;0.73;;
72601;SDS011;60644;55.858;37.390;2022-07-21T05:42:41;2.53;;;0.60;;
72601;SDS011;60644;55.858;37.390;2022-07-21T05:45:07;2.67;;;0.70;;
72601;SDS011;60644;55.858;37.390;2022-07-21T05:47:34;2.72;;;0.70;;
72601;SDS011;60644;55.858;37.390;2022-07-21T05:50:00;3.88;;;0.70;;
72601;SDS011;60644;55.858;37.390;2022-07-21T05:52:29;3.43;;;0.80;;
72601;SDS011;60644;55.858;37.390;2022-07-21T05:54:55;3.20;;;0.70;;
72601;SDS011;60644;55.858;37.390;2022-07-21T05:57:21;2.75;;;0.60;;
72601;SDS011;60644;55.858;37.390;2022-07-21T05:59:47;3.00;;;0.90;;
72601;SDS011;60644;55.858;37.390;2022-07-21T06:02:13;3.50;;;1.15;;
72601;SDS011;60644;55.858;37.390;2022-07-21T06:04:39;3.50;;;1.02;;
72601;SDS011;60644;55.858;37.390;2022-07-21T06:07:06;3.85;;;0.60;;
72601;SDS011;60644;55.858;37.390;2022-07-21T06:09:32;2.80;;;0.80;;
72601;SDS011;60644;55.858;37.390;2022-07-21T06:11:58;2.17;;;0.50;;
72601;SDS011;60644;55.858;37.390;2022-07-21T06:14:24;2.95;;;0.70;;
72601;SDS011;60644;55.858;37.390;2022-07-21T06:16:50;5.40;;;0.75;;
72601;SDS011;60644;55.858;37.390;2022-07-21T06:19:16;3.15;;;0.60;;
72601;SDS011;60644;55.858;37.390;2022-07-21T06:21:43;2.93;;;0.60;;
72601;SDS011;60644;55.858;37.390;2022-07-21T06:24:09;3.17;;;0.70;;
72601;SDS011;60644;55.858;37.390;2022-07-21T06:26:36;3.10;;;0.70;;
72601;SDS011;60644;55.858;37.390;2022-07-21T06:29:04;5.22;;;0.80;;
72601;SDS011;60644;55.858;37.390;2022-07-21T06:31:31;2.95;;;0.63;;
72601;SDS011;60644;55.858;37.390;2022-07-21T06:33:58;3.13;;;0.67;;
72601;SDS011;60644;55.858;37.390;2022-07-21T06:36:24;4.20;;;0.50;;
72601;SDS011;60644;55.858;37.390;2022-07-21T06:38:50;4.90;;;0.80;;
72601;SDS011;60644;55.858;37.390;2022-07-21T06:41:16;3.10;;;0.75;;
72601;SDS011;60644;55.858;37.390;2022-07-21T06:43:42;5.13;;;0.90;;
72601;SDS011;60644;55.858;37.390;2022-07-21T06:46:08;2.33;;;0.50;;
72601;SDS011;60644;55.858;37.390;2022-07-21T06:48:34;3.83;;;0.80;;
72601;SDS011;60644;55.858;37.390;2022-07-21T06:51:00;2.93;;;0.73;;
72601;SDS011;60644;55.858;37.390;2022-07-21T06:53:26;2.28;;;0.63;;
72601;SDS011;60644;55.858;37.390;2022-07-21T06:55:51;2.75;;;0.70;;
72601;SDS011;60644;55.858;37.390;2022-07-21T06:58:22;2.53;;;0.60;;
72601;SDS011;60644;55.858;37.390;2022-07-21T07:00:50;3.10;;;0.80;;
72601;SDS011;60644;55.858;37.390;2022-07-21T07:03:17;4.07;;;0.77;;
72601;SDS011;60644;55.858;37.390;2022-07-21T07:05:46;3.83;;;0.70;;
72601;SDS011;60644;55.858;37.390;2022-07-21T07:08:13;5.97;;;0.70;;
72601;SDS011;60644;55.858;37.390;2022-07-21T07:10:40;3.55;;;0.82;;
72601;SDS011;60644;55.858;37.390;2022-07-21T07:13:06;2.73;;;0.80;;
72601;SDS011;60644;55.858;37.390;2022-07-21T07:15:33;3.72;;;0.90;;
72601;SDS011;60644;55.858;37.390;2022-07-21T07:17:59;2.75;;;0.75;;
72601;SDS011;60644;55.858;37.390;2022-07-21T07:20:25;2.70;;;0.50;;
72601;SDS011;60644;55.858;37.390;2022-07-21T07:22:51;2.87;;;0.50;;
72601;SDS011;60644;55.858;37.390;2022-07-21T07:25:17;5.93;;;0.95;;
72601;SDS011;60644;55.858;37.390;2022-07-21T07:27:44;2.97;;;0.70;;
72601;SDS011;60644;55.858;37.390;2022-07-21T07:30:12;5.50;;;0.98;;
72601;SDS011;60644;55.858;37.390;2022-07-21T07:32:38;3.70;;;0.90;;
72601;SDS011;60644;55.858;37.390;2022-07-21T07:35:06;4.22;;;1.02;;
72601;SDS011;60644;55.858;37.390;2022-07-21T07:37:36;3.90;;;1.00;;
72601;SDS011;60644;55.858;37.390;2022-07-21T07:40:04;3.47;;;0.80;;
72601;SDS011;60644;55.858;37.390;2022-07-21T07:42:33;3.17;;;0.90;;
72601;SDS011;60644;55.858;37.390;2022-07-21T07:45:00;3.37;;;0.70;;
72601;SDS011;60644;55.858;37.390;2022-07-21T07:47:26;2.47;;;0.80;;
72601;SDS011;60644;55.858;37.390;2022-07-21T07:49:52;2.83;;;0.80;;
72601;SDS011;60644;55.858;37.390;2022-07-21T07:52:21;2.65;;;0.90;;
72601;SDS011;60644;55.858;37.390;2022-07-21T07:54:48;3.10;;;1.00;;
72601;SDS011;60644;55.858;37.390;2022-07-21T07:57:14;4.40;;;1.13;;
72601;SDS011;60644;55.858;37.390;2022-07-21T07:59:40;3.38;;;1.15;;
72601;SDS011;60644;55.858;37.390;2022-07-21T08:02:05;4.35;;;1.00;;
72601;SDS011;60644;55.858;37.390;2022-07-21T08:04:31;3.23;;;0.70;;
72601;SDS011;60644;55.858;37.390;2022-07-21T08:06:57;4.32;;;1.23;;
72601;SDS011;60644;55.858;37.390;2022-07-21T08:09:23;2.55;;;0.70;;
72601;SDS011;60644;55.858;37.390;2022-07-21T08:11:49;2.45;;;0.70;;
72601;SDS011;60644;55.858;37.390;2022-07-21T08:14:16;3.87;;;1.00;;
72601;SDS011;60644;55.858;37.390;2022-07-21T08:16:42;4.03;;;0.82;;
72601;SDS011;60644;55.858;37.390;2022-07-21T08:19:08;4.30;;;1.10;;
72601;SDS011;60644;55.858;37.390;2022-07-21T08:21:35;3.15;;;0.80;;
72601;SDS011;60644;55.858;37.390;2022-07-21T08:24:01;4.90;;;1.23;;
72601;SDS011;60644;55.858;37.390;2022-07-21T08:26:28;4.20;;;0.90;;
72601;SDS011;60644;55.858;37.390;2022-07-21T08:28:54;3.63;;;1.08;;
72601;SDS011;60644;55.858;37.390;2022-07-21T08:31:21;2.83;;;0.88;;
72601;SDS011;60644;55.858;37.390;2022-07-21T08:33:49;3.40;;;0.90;;
72601;SDS011;60644;55.858;37.390;2022-07-21T08:36:16;3.25;;;0.95;;
72601;SDS011;60644;55.858;37.390;2022-07-21T08:38:42;1.93;;;0.43;;
72601;SDS011;60644;55.858;37.390;2022-07-21T08:41:09;2.95;;;0.55;;
72601;SDS011;60644;55.858;37.390;2022-07-21T08:43:36;3.28;;;0.95;;
72601;SDS011;60644;55.858;37.390;2022-07-21T08:46:02;3.17;;;0.85;;
72601;SDS011;60644;55.858;37.390;2022-07-21T08:48:29;2.65;;;0.70;;
72601;SDS011;60644;55.858;37.390;2022-07-21T08:50:55;4.13;;;0.73;;
72601;SDS011;60644;55.858;37.390;2022-07-21T08:53:22;4.35;;;0.93;;
72601;SDS011;60644;55.858;37.390;2022-07-21T08:55:49;2.42;;;0.55;;
72601;SDS011;60644;55.858;37.390;2022-07-21T08:58:16;2.22;;;0.70;;
72601;SDS011;60644;55.858;37.390;2022-07-21T09:00:44;3.23;;;0.80;;
72601;SDS011;60644;55.858;37.390;2022-07-21T09:03:21;3.88;;;0.70;;
72601;SDS011;60644;55.858;37.390;2022-07-21T09:05:59;4.05;;;0.90;;
72601;SDS011;60644;55.858;37.390;2022-07-21T09:08:34;4.70;;;1.10;;
72601;SDS011;60644;55.858;37.390;2022-07-21T09:11:12;4.32;;;0.90;;
72601;SDS011;60644;55.858;37.390;2022-07-21T09:14:10;4.67;;;0.80;;
72601;SDS011;60644;55.858;37.390;2022-07-21T09:21:51;3.85;;;1.20;;
72601;SDS011;60644;55.858;37.390;2022-07-21T09:24:24;3.65;;;0.60;;
72601;SDS011;60644;55.858;37.390;2022-07-21T09:29:25;2.78;;;0.73;;
72601;SDS011;60644;55.858;37.390;2022-07-21T09:31:52;2.30;;;0.60;;
72601;SDS011;60644;55.858;37.390;2022-07-21T09:34:18;2.28;;;0.50;;
72601;SDS011;60644;55.858;37.390;2022-07-21T09:36:56;2.95;;;0.80;;
72601;SDS011;60644;55.858;37.390;2022-07-21T09:42:21;2.58;;;0.73;;
72601;SDS011;60644;55.858;37.390;2022-07-21T09:45:07;2.47;;;0.50;;
72601;SDS011;60644;55.858;37.390;2022-07-21T09:47:39;3.53;;;0.70;;
72601;SDS011;60644;55.858;37.390;2022-07-21T09:50:07;2.33;;;0.55;;
72601;SDS011;60644;55.858;37.390;2022-07-21T09:52:35;3.57;;;0.80;;
72601;SDS011;60644;55.858;37.390;2022-07-21T09:55:06;2.85;;;0.60;;
72601;SDS011;60644;55.858;37.390;2022-07-21T09:57:40;3.63;;;0.60;;
72601;SDS011;60644;55.858;37.390;2022-07-21T10:00:07;2.65;;;0.80;;
72601;SDS011;60644;55.858;37.390;2022-07-21T10:02:35;2.25;;;0.65;;
72601;SDS011;60644;55.858;37.390;2022-07-21T10:05:09;2.13;;;0.40;;
72601;SDS011;60644;55.858;37.390;2022-07-21T10:07:41;1.60;;;0.40;;
72601;SDS011;60644;55.858;37.390;2022-07-21T10:10:09;2.45;;;0.60;;
72601;SDS011;60644;55.858;37.390;2022-07-21T10:12:37;2.65;;;0.52;;
72601;SDS011;60644;55.858;37.390;2022-07-21T10:15:04;3.78;;;0.60;;
72601;SDS011;60644;55.858;37.390;2022-07-21T10:17:31;2.10;;;0.63;;
72601;SDS011;60644;55.858;37.390;2022-07-21T10:22:49;1.38;;;0.35;;
72601;SDS011;60644;55.858;37.390;2022-07-21T10:25:33;2.40;;;0.70;;
72601;SDS011;60644;55.858;37.390;2022-07-21T10:30:39;2.07;;;0.70;;
72601;SDS011;60644;55.858;37.390;2022-07-21T10:33:06;2.08;;;0.50;;
72601;SDS011;60644;55.858;37.390;2022-07-21T10:35:33;2.00;;;0.47;;
72601;SDS011;60644;55.858;37.390;2022-07-21T10:37:59;3.70;;;0.85;;
72601;SDS011;60644;55.858;37.390;2022-07-21T10:45:31;4.30;;;0.70;;
72601;SDS011;60644;55.858;37.390;2022-07-21T10:47:58;2.78;;;0.65;;
72601;SDS011;60644;55.858;37.390;2022-07-21T10:50:30;2.47;;;0.82;;
72601;SDS011;60644;55.858;37.390;2022-07-21T10:55:26;3.67;;;0.60;;
72601;SDS011;60644;55.858;37.390;2022-07-21T10:58:10;2.13;;;0.50;;
72601;SDS011;60644;55.858;37.390;2022-07-21T11:00:46;2.70;;;0.70;;
72601;SDS011;60644;55.858;37.390;2022-07-21T11:03:16;2.95;;;0.80;;
72601;SDS011;60644;55.858;37.390;2022-07-21T11:11:28;2.97;;;0.80;;
72601;SDS011;60644;55.858;37.390;2022-07-21T11:14:14;2.55;;;0.70;;
72601;SDS011;60644;55.858;37.390;2022-07-21T11:21:58;5.53;;;0.93;;
72601;SDS011;60644;55.858;37.390;2022-07-21T11:24:26;3.33;;;0.90;;
72601;SDS011;60644;55.858;37.390;2022-07-21T11:27:00;2.55;;;0.70;;
72601;SDS011;60644;55.858;37.390;2022-07-21T11:29:31;5.65;;;0.95;;
72601;SDS011;60644;55.858;37.390;2022-07-21T11:31:59;3.63;;;1.00;;
72601;SDS011;60644;55.858;37.390;2022-07-21T11:34:37;3.80;;;1.10;;
72601;SDS011;60644;55.858;37.390;2022-07-21T11:37:03;4.00;;;0.90;;
72601;SDS011;60644;55.858;37.390;2022-07-21T11:39:29;2.47;;;0.80;;
72601;SDS011;60644;55.858;37.390;2022-07-21T11:42:00;3.50;;;1.03;;
72601;SDS011;60644;55.858;37.390;2022-07-21T11:44:28;3.40;;;0.90;;
72601;SDS011;60644;55.858;37.390;2022-07-21T11:46:58;4.60;;;1.00;;
72601;SDS011;60644;55.858;37.390;2022-07-21T11:49:25;4.10;;;1.00;;
72601;SDS011;60644;55.858;37.390;2022-07-21T11:51:53;5.40;;;1.10;;
72601;SDS011;60644;55.858;37.390;2022-07-21T11:57:03;3.53;;;0.63;;
72601;SDS011;60644;55.858;37.390;2022-07-21T11:59:31;3.53;;;0.90;;
72601;SDS011;60644;55.858;37.390;2022-07-21T12:01:59;2.45;;;0.98;;
72601;SDS011;60644;55.858;37.390;2022-07-21T12:04:28;3.28;;;0.95;;
72601;SDS011;60644;55.858;37.390;2022-07-21T12:07:05;2.67;;;0.93;;
72601;SDS011;60644;55.858;37.390;2022-07-21T12:09:37;2.80;;;0.93;;
72601;SDS011;60644;55.858;37.390;2022-07-21T12:12:04;3.67;;;1.20;;
72601;SDS011;60644;55.858;37.390;2022-07-21T12:14:45;4.00;;;0.85;;
72601;SDS011;60644;55.858;37.390;2022-07-21T12:17:32;5.20;;;1.15;;
72601;SDS011;60644;55.858;37.390;2022-07-21T12:20:06;5.17;;;1.00;;
72601;SDS011;60644;55.858;37.390;2022-07-21T12:22:37;2.78;;;0.70;;
72601;SDS011;60644;55.858;37.390;2022-07-21T12:25:12;3.25;;;0.85;;
72601;SDS011;60644;55.858;37.390;2022-07-21T12:27:40;2.92;;;0.85;;
72601;SDS011;60644;55.858;37.390;2022-07-21T12:30:10;2.75;;;0.77;;
72601;SDS011;60644;55.858;37.390;2022-07-21T12:32:56;3.17;;;0.70;;
72601;SDS011;60644;55.858;37.390;2022-07-21T12:35:37;3.88;;;0.88;;
72601;SDS011;60644;55.858;37.390;2022-07-21T12:38:08;3.25;;;1.00;;
72601;SDS011;60644;55.858;37.390;2022-07-21T12:40:40;3.33;;;0.80;;
72601;SDS011;60644;55.858;37.390;2022-07-21T12:48:12;3.22;;;0.80;;
72601;SDS011;60644;55.858;37.390;2022-07-21T12:50:42;5.80;;;1.05;;
72601;SDS011;60644;55.858;37.390;2022-07-21T12:53:26;3.45;;;0.80;;
72601;SDS011;60644;55.858;37.390;2022-07-21T12:55:52;3.05;;;0.98;;
72601;SDS011;60644;55.858;37.390;2022-07-21T12:58:18;3.40;;;0.80;;
72601;SDS011;60644;55.858;37.390;2022-07-21T13:00:44;2.40;;;0.70;;
72601;SDS011;60644;55.858;37.390;2022-07-21T13:03:10;3.45;;;1.02;;
72601;SDS011;60644;55.858;37.390;2022-07-21T13:05:37;2.88;;;1.00;;
72601;SDS011;60644;55.858;37.390;2022-07-21T13:08:03;3.55;;;1.27;;
72601;SDS011;60644;55.858;37.390;2022-07-21T13:10:30;2.23;;;0.70;;
72601;SDS011;60644;55.858;37.390;2022-07-21T13:12:56;2.30;;;0.70;;
72601;SDS011;60644;55.858;37.390;2022-07-21T13:15:22;3.88;;;0.88;;
72601;SDS011;60644;55.858;37.390;2022-07-21T13:17:48;2.92;;;0.90;;
72601;SDS011;60644;55.858;37.390;2022-07-21T13:20:14;2.60;;;0.70;;
72601;SDS011;60644;55.858;37.390;2022-07-21T13:22:40;2.50;;;0.88;;
72601;SDS011;60644;55.858;37.390;2022-07-21T13:25:07;3.30;;;0.98;;
72601;SDS011;60644;55.858;37.390;2022-07-21T13:27:36;3.47;;;0.95;;
72601;SDS011;60644;55.858;37.390;2022-07-21T13:30:03;3.97;;;1.10;;
72601;SDS011;60644;55.858;37.390;2022-07-21T13:32:32;3.13;;;0.93;;
72601;SDS011;60644;55.858;37.390;2022-07-21T13:34:59;3.25;;;0.88;;
72601;SDS011;60644;55.858;37.390;2022-07-21T13:37:26;2.78;;;0.60;;
72601;SDS011;60644;55.858;37.390;2022-07-21T13:39:52;6.72;;;1.15;;
72601;SDS011;60644;55.858;37.390;2022-07-21T13:42:18;4.20;;;0.80;;
72601;SDS011;60644;55.858;37.390;2022-07-21T13:44:44;3.80;;;1.10;;
72601;SDS011;60644;55.858;37.390;2022-07-21T13:47:10;5.00;;;1.30;;
72601;SDS011;60644;55.858;37.390;2022-07-21T13:49:36;4.00;;;1.00;;
72601;SDS011;60644;55.858;37.390;2022-07-21T13:52:02;3.42;;;1.00;;
72601;SDS011;60644;55.858;37.390;2022-07-21T13:54:28;2.87;;;0.80;;
72601;SDS011;60644;55.858;37.390;2022-07-21T13:56:54;3.03;;;0.90;;
72601;SDS011;60644;55.858;37.390;2022-07-21T13:59:22;2.70;;;0.80;;
72601;SDS011;60644;55.858;37.390;2022-07-21T14:01:48;5.00;;;0.85;;
72601;SDS011;60644;55.858;37.390;2022-07-21T14:04:14;2.10;;;0.70;;
72601;SDS011;60644;55.858;37.390;2022-07-21T14:06:40;3.85;;;1.05;;
72601;SDS011;60644;55.858;37.390;2022-07-21T14:09:06;2.78;;;0.80;;
72601;SDS011;60644;55.858;37.390;2022-07-21T14:11:32;4.47;;;1.00;;
72601;SDS011;60644;55.858;37.390;2022-07-21T14:13:58;4.78;;;1.00;;
72601;SDS011;60644;55.858;37.390;2022-07-21T14:16:24;3.33;;;0.87;;
72601;SDS011;60644;55.858;37.390;2022-07-21T14:18:50;4.38;;;0.90;;
72601;SDS011;60644;55.858;37.390;2022-07-21T14:21:16;2.97;;;0.80;;
72601;SDS011;60644;55.858;37.390;2022-07-21T14:23:42;6.00;;;1.10;;
72601;SDS011;60644;55.858;37.390;2022-07-21T14:26:08;3.50;;;1.23;;
72601;SDS011;60644;55.858;37.390;2022-07-21T14:28:34;6.13;;;1.10;;
72601;SDS011;60644;55.858;37.390;2022-07-21T14:31:00;4.72;;;1.08;;
72601;SDS011;60644;55.858;37.390;2022-07-21T14:33:26;3.50;;;0.90;;
72601;SDS011;60644;55.858;37.390;2022-07-21T14:35:54;3.33;;;0.90;;
72601;SDS011;60644;55.858;37.390;2022-07-21T14:38:20;3.20;;;1.00;;
72601;SDS011;60644;55.858;37.390;2022-07-21T14:40:46;3.38;;;1.00;;
72601;SDS011;60644;55.858;37.390;2022-07-21T14:43:12;5.82;;;0.88;;
72601;SDS011;60644;55.858;37.390;2022-07-21T14:45:38;3.03;;;0.93;;
72601;SDS011;60644;55.858;37.390;2022-07-21T14:48:04;5.57;;;1.10;;
72601;SDS011;60644;55.858;37.390;2022-07-21T14:50:33;3.17;;;0.75;;
72601;SDS011;60644;55.858;37.390;2022-07-21T14:52:59;2.78;;;0.60;;
72601;SDS011;60644;55.858;37.390;2022-07-21T14:55:26;7.60;;;0.97;;
72601;SDS011;60644;55.858;37.390;2022-07-21T14:57:53;6.18;;;1.90;;
72601;SDS011;60644;55.858;37.390;2022-07-21T15:00:20;6.13;;;1.30;;
72601;SDS011;60644;55.858;37.390;2022-07-21T15:02:46;5.57;;;1.42;;
72601;SDS011;60644;55.858;37.390;2022-07-21T15:05:13;3.20;;;1.10;;
72601;SDS011;60644;55.858;37.390;2022-07-21T15:07:39;5.27;;;1.33;;
72601;SDS011;60644;55.858;37.390;2022-07-21T15:10:05;4.05;;;0.95;;
72601;SDS011;60644;55.858;37.390;2022-07-21T15:12:31;4.90;;;1.40;;
72601;SDS011;60644;55.858;37.390;2022-07-21T15:14:57;4.25;;;1.27;;
72601;SDS011;60644;55.858;37.390;2022-07-21T15:17:23;6.32;;;1.67;;
72601;SDS011;60644;55.858;37.390;2022-07-21T15:19:49;3.47;;;0.90;;
72601;SDS011;60644;55.858;37.390;2022-07-21T15:22:15;4.88;;;1.10;;
72601;SDS011;60644;55.858;37.390;2022-07-21T15:24:41;3.38;;;1.02;;